Time;durP1;ratioP1;P1;durP2;ratioP2;P2;SDS_P1;SDS_P2;PMS_P1;PMS_P2;Temp;Humidity;BMP_temperature;BMP_pressure;BME280_temperature;BME280_humidity;BME280_pressure;Samples;Min_cycle;Max_cycle;Signal;HPM_P1;HPM_P2
2021/12/11 00:01:52;;;;;;;36.30;20.50;;;-0.40;99.90;;;;;;5007120;28;20056;-83
2021/12/11 00:04:28;;;;;;;34.47;20.70;;;-0.30;99.90;;;;;;5015207;28;20110;-83
2021/12/11 00:06:56;;;;;;;34.67;20.20;;;-0.40;99.90;;;;;;4998392;28;20041;-84
2021/12/11 00:09:36;;;;;;;42.05;21.42;;;-0.40;99.90;;;;;;5015283;28;20390;-83
2021/12/11 00:12:13;;;;;;;37.05;20.80;;;-0.40;99.90;;;;;;4998691;28;20099;-85
2021/12/11 00:14:45;;;;;;;39.08;22.10;;;-0.30;99.90;;;;;;4998950;28;20114;-85
2021/12/11 00:17:18;;;;;;;40.35;23.67;;;-0.40;99.90;;;;;;5014937;28;20091;-85
2021/12/11 00:19:45;;;;;;;44.55;25.52;;;-0.60;99.90;;;;;;4999596;28;20390;-84
2021/12/11 00:22:16;;;;;;;40.97;25.60;;;-0.30;99.90;;;;;;4998505;28;20049;-84
2021/12/11 00:24:42;;;;;;;40.20;24.55;;;-0.40;99.90;;;;;;4990199;28;20104;-85
2021/12/11 00:27:20;;;;;;;42.25;24.75;;;-0.40;99.90;;;;;;4979216;28;20500;-82
2021/12/11 00:29:46;;;;;;;41.60;24.63;;;-0.30;99.90;;;;;;4995104;28;20140;-82
2021/12/11 00:32:23;;;;;;;44.85;24.92;;;-0.50;99.90;;;;;;4979175;28;20121;-83
2021/12/11 00:34:50;;;;;;;42.60;25.35;;;-0.40;99.90;;;;;;4995898;28;20391;-85
2021/12/11 00:37:19;;;;;;;44.45;26.60;;;-0.50;99.90;;;;;;4995888;28;20056;-84
2021/12/11 00:39:52;;;;;;;42.38;26.92;;;-0.50;99.90;;;;;;5015301;28;20079;-83
2021/12/11 00:42:20;;;;;;;40.88;24.70;;;-0.50;99.90;;;;;;4998768;28;20076;-84
2021/12/11 00:44:53;;;;;;;38.78;25.60;;;-0.40;99.90;;;;;;5014908;28;20065;-83
2021/12/11 00:47:32;;;;;;;42.90;23.58;;;-0.50;99.90;;;;;;5014741;28;20077;-84
2021/12/11 00:49:59;;;;;;;38.88;23.73;;;-0.40;99.90;;;;;;5014033;28;20099;-82
2021/12/11 00:52:31;;;;;;;42.75;24.05;;;-0.50;99.90;;;;;;4998430;28;20083;-84
2021/12/11 00:54:58;;;;;;;46.85;26.60;;;-0.40;99.90;;;;;;5014512;28;20049;-84
2021/12/11 00:57:24;;;;;;;39.90;24.25;;;-0.50;99.90;;;;;;5014502;28;20049;-84
2021/12/11 01:00:16;;;;;;;41.92;25.50;;;-0.50;99.90;;;;;;4998102;28;20087;-84
2021/12/11 01:02:44;;;;;;;43.25;25.50;;;-0.40;99.90;;;;;;4998078;28;20047;-83
2021/12/11 01:05:11;;;;;;;44.03;27.50;;;-0.70;99.90;;;;;;5013485;28;20037;-83
2021/12/11 01:07:38;;;;;;;45.08;25.63;;;-0.50;99.90;;;;;;4998587;28;20549;-83
2021/12/11 01:10:24;;;;;;;47.30;28.73;;;-0.60;99.90;;;;;;5014230;28;20553;-84
2021/12/11 01:12:55;;;;;;;43.45;27.27;;;-0.40;99.90;;;;;;5018441;28;20041;-82
2021/12/11 01:15:21;;;;;;;44.97;26.63;;;-0.50;99.90;;;;;;5001766;28;20080;-82
2021/12/11 01:20:50;;;;;;;39.78;24.52;;;-0.50;99.90;;;;;;5012138;28;20064;-83
2021/12/11 01:23:33;;;;;;;47.28;25.77;;;-0.50;99.90;;;;;;4998876;28;20398;-81
2021/12/11 01:26:05;;;;;;;39.38;23.60;;;-0.70;99.90;;;;;;5017419;28;20127;-82
2021/12/11 01:28:32;;;;;;;38.38;25.10;;;-0.60;99.90;;;;;;5018440;28;20057;-82
2021/12/11 01:30:59;;;;;;;38.83;22.30;;;-0.70;99.90;;;;;;5001738;28;20042;-82
2021/12/11 01:33:25;;;;;;;40.42;22.75;;;-0.70;99.90;;;;;;5006319;28;20394;-82
2021/12/11 01:35:52;;;;;;;37.15;22.58;;;-0.80;99.90;;;;;;5021369;28;20045;-82
2021/12/11 01:38:21;;;;;;;38.88;21.38;;;-0.70;99.90;;;;;;5037902;28;20316;-82
2021/12/11 01:40:52;;;;;;;35.78;20.98;;;-0.70;99.90;;;;;;5021108;28;20037;-82
2021/12/11 01:43:23;;;;;;;35.70;21.98;;;-0.90;99.90;;;;;;5025041;28;20041;-82
2021/12/11 01:45:51;;;;;;;34.92;22.08;;;-0.90;99.90;;;;;;5018080;28;20064;-82
2021/12/11 01:48:36;;;;;;;41.58;24.02;;;-0.80;99.90;;;;;;5001045;28;20107;-83
2021/12/11 01:51:10;;;;;;;40.43;23.97;;;-0.70;99.90;;;;;;5018706;28;20045;-82
2021/12/11 01:53:41;;;;;;;47.70;24.92;;;-0.70;99.90;;;;;;5017984;28;20034;-82
2021/12/11 01:56:11;;;;;;;52.90;25.52;;;-0.80;99.90;;;;;;5017466;28;20490;-82
2021/12/11 01:58:44;;;;;;;42.45;23.00;;;-0.70;99.90;;;;;;5018101;28;20053;-82
2021/12/11 02:01:37;;;;;;;33.38;19.90;;;-0.80;99.90;;;;;;5000815;28;20478;-82
2021/12/11 02:04:06;;;;;;;32.17;19.17;;;-0.80;99.90;;;;;;5001017;28;20451;-81
2021/12/11 02:06:36;;;;;;;32.40;19.20;;;-0.90;99.90;;;;;;5017855;28;20401;-81
2021/12/11 02:09:22;;;;;;;30.17;17.10;;;-0.90;99.90;;;;;;5000960;28;20102;-82
2021/12/11 02:11:58;;;;;;;29.42;17.20;;;-0.80;99.90;;;;;;5005035;28;20038;-81
2021/12/11 02:14:32;;;;;;;28.95;17.52;;;1.70;99.90;;;;;;5037486;28;20117;-81
2021/12/11 02:16:59;;;;;;;29.75;16.98;;;-1.10;99.90;;;;;;5020180;28;20041;-82
2021/12/11 02:19:31;;;;;;;34.35;17.98;;;-1.00;99.90;;;;;;5021119;28;20394;-82
2021/12/11 02:22:09;;;;;;;23.88;15.40;;;-1.20;99.90;;;;;;5008744;28;20045;-82
2021/12/11 02:24:52;;;;;;;27.75;16.80;;;-0.90;99.90;;;;;;4993299;28;20050;-82
2021/12/11 02:27:27;;;;;;;23.55;15.98;;;-0.90;99.90;;;;;;4981311;28;20304;-81
2021/12/11 02:30:06;;;;;;;26.88;15.32;;;-0.80;99.90;;;;;;5004841;28;20478;-81
2021/12/11 02:32:42;;;;;;;22.27;13.32;;;-1.00;99.90;;;;;;5001144;28;20038;-82
2021/12/11 02:35:16;;;;;;;28.58;16.27;;;-0.80;99.90;;;;;;5017077;28;20052;-82
2021/12/11 02:37:47;;;;;;;24.15;13.70;;;-0.90;99.90;;;;;;4992228;28;20050;-81
2021/12/11 02:40:52;;;;;;;24.20;15.93;;;-0.80;99.90;;;;;;4981158;28;20115;-81
2021/12/11 02:43:24;;;;;;;27.60;15.05;;;-0.70;99.90;;;;;;4968013;28;20522;-82
2021/12/11 02:46:06;;;;;;;24.70;14.73;;;-0.70;99.90;;;;;;4981388;28;20080;-82
2021/12/11 02:48:43;;;;;;;24.75;16.33;;;-1.00;99.90;;;;;;4980845;28;20045;-82
2021/12/11 02:51:19;;;;;;;26.13;15.40;;;-0.70;99.90;;;;;;4980567;28;20045;-81
2021/12/11 02:53:57;;;;;;;23.65;14.90;;;-0.70;99.90;;;;;;4997585;28;20054;-82
2021/12/11 02:56:34;;;;;;;27.65;16.48;;;-0.70;99.90;;;;;;4997335;28;20125;-82
2021/12/11 02:59:06;;;;;;;28.27;15.20;;;-0.90;99.90;;;;;;4981316;28;20042;-82
2021/12/11 03:01:40;;;;;;;22.23;14.07;;;-0.80;99.90;;;;;;5010582;28;20490;-81
2021/12/11 03:04:20;;;;;;;21.17;13.73;;;-0.70;99.90;;;;;;4990677;28;20044;-81
2021/12/11 03:06:48;;;;;;;23.65;14.07;;;-0.80;99.90;;;;;;5000243;28;20033;-82
2021/12/11 03:09:18;;;;;;;25.52;14.60;;;-1.10;99.90;;;;;;5033141;28;20041;-82
2021/12/11 03:11:45;;;;;;;27.20;15.95;;;-1.10;99.90;;;;;;5000443;28;20045;-81
2021/12/11 03:14:14;;;;;;;23.67;14.35;;;-0.90;99.90;;;;;;4999802;28;20179;-82
2021/12/11 03:16:41;;;;;;;26.50;15.73;;;-1.10;99.90;;;;;;5016206;28;20091;-82
2021/12/11 03:19:09;;;;;;;26.67;15.23;;;-1.00;99.90;;;;;;4988026;28;20389;-81
2021/12/11 03:21:36;;;;;;;21.38;13.05;;;-0.90;99.90;;;;;;4996609;28;20081;-82
2021/12/11 03:24:03;;;;;;;19.95;12.57;;;-1.20;99.90;;;;;;4983412;28;20478;-82
2021/12/11 03:26:29;;;;;;;22.10;13.75;;;-0.80;99.90;;;;;;5016158;28;20045;-82
2021/12/11 03:28:55;;;;;;;25.65;14.55;;;-1.10;99.90;;;;;;4999910;28;20045;-82
2021/12/11 03:31:20;;;;;;;21.73;13.82;;;-1.00;99.90;;;;;;4999736;28;20076;-81
2021/12/11 03:33:50;;;;;;;22.25;13.20;;;-1.00;99.90;;;;;;4999342;28;20041;-82
2021/12/11 03:36:19;;;;;;;24.92;13.93;;;-0.80;99.90;;;;;;5016152;28;20042;-82
2021/12/11 03:38:50;;;;;;;22.75;12.90;;;-1.20;99.90;;;;;;4999653;28;20490;-81
2021/12/11 03:41:16;;;;;;;24.20;13.52;;;-0.90;99.90;;;;;;5020319;28;20394;-81
2021/12/11 03:43:42;;;;;;;23.65;13.95;;;-0.90;99.90;;;;;;5035899;28;20045;-81
2021/12/11 03:46:09;;;;;;;25.58;14.55;;;-1.20;99.90;;;;;;5019449;28;20126;-82
2021/12/11 03:48:49;;;;;;;25.20;14.82;;;-1.10;99.90;;;;;;5035362;28;20379;-82
2021/12/11 03:51:18;;;;;;;23.55;14.43;;;-0.80;99.90;;;;;;5018877;28;20041;-82
2021/12/11 03:53:44;;;;;;;27.48;15.10;;;-0.90;99.90;;;;;;5036039;28;20474;-82
2021/12/11 03:56:12;;;;;;;25.75;15.18;;;-0.90;99.90;;;;;;5019055;28;20041;-83
2021/12/11 03:58:40;;;;;;;25.92;15.40;;;-0.90;99.90;;;;;;5035636;28;20052;-83
2021/12/11 04:01:06;;;;;;;31.17;17.23;;;-0.80;99.90;;;;;;5018577;28;20049;-84
2021/12/11 04:03:42;;;;;;;25.75;14.85;;;-1.00;99.90;;;;;;5019917;28;20127;-83
2021/12/11 04:06:10;;;;;;;23.48;14.65;;;-1.00;99.90;;;;;;5019061;28;20041;-83
2021/12/11 04:08:41;;;;;;;24.67;14.20;;;-1.00;99.90;;;;;;5018852;28;20048;-82
2021/12/11 04:11:19;;;;;;;27.08;14.98;;;-1.10;99.90;;;;;;5035430;28;20072;-83
2021/12/11 04:13:49;;;;;;;23.17;13.52;;;-0.90;99.90;;;;;;5018922;28;20049;-83
2021/12/11 04:16:15;;;;;;;23.55;14.13;;;-0.90;99.90;;;;;;5008764;28;20029;-83
2021/12/11 04:18:41;;;;;;;25.60;14.27;;;-1.00;99.90;;;;;;4999759;28;20391;-83
2021/12/11 04:21:08;;;;;;;25.02;14.40;;;-1.10;99.90;;;;;;4999371;28;20053;-82
2021/12/11 04:23:34;;;;;;;22.38;14.35;;;-1.00;99.90;;;;;;4999636;28;20485;-82
2021/12/11 04:26:01;;;;;;;26.00;12.70;;;-0.90;99.90;;;;;;4996015;28;20057;-82
2021/12/11 04:28:30;;;;;;;25.27;15.00;;;-1.00;99.90;;;;;;5007115;28;20125;-82
2021/12/11 04:31:04;;;;;;;26.15;13.50;;;-1.10;99.90;;;;;;5015203;28;20075;-82
2021/12/11 04:33:31;;;;;;;27.55;15.48;;;-0.90;99.90;;;;;;5015856;28;20052;-83
2021/12/11 04:35:57;;;;;;;22.25;13.02;;;-1.00;99.90;;;;;;5015692;28;20052;-83
2021/12/11 04:38:23;;;;;;;27.23;14.85;;;-1.10;99.90;;;;;;5015178;28;20038;-81
2021/12/11 04:40:53;;;;;;;22.98;14.25;;;-1.10;99.90;;;;;;5014959;28;20053;-81
2021/12/11 04:43:22;;;;;;;23.83;14.32;;;-1.10;99.90;;;;;;4999034;28;20132;-81
2021/12/11 04:45:53;;;;;;;23.20;14.57;;;-1.10;99.90;;;;;;4997960;28;20486;-81
2021/12/11 04:51:01;;;;;;;30.17;18.98;;;-1.20;99.90;;;;;;5015228;28;20033;-81
2021/12/11 05:04:32;;;;;;;42.40;21.42;;;-1.30;99.90;;;;;;4997552;28;20060;-81
2021/12/11 05:09:59;;;;;;;33.05;20.08;;;-1.20;99.90;;;;;;4995519;28;20449;-82
2021/12/11 05:14:52;;;;;;;33.17;18.40;;;-1.20;99.90;;;;;;4995503;28;20053;-82
2021/12/11 05:17:19;;;;;;;25.83;15.55;;;;;;;;;;4983904;28;20099;-82
2021/12/11 05:19:48;;;;;;;27.13;14.50;;;;;;;;;;5014552;28;20046;-82
2021/12/11 05:22:14;;;;;;;25.02;15.48;;;;;;;;;;5014785;28;20046;-82
2021/12/11 05:24:42;;;;;;;25.52;15.77;;;;;;;;;;5023219;28;20084;-82
2021/12/11 05:27:09;;;;;;;27.83;16.55;;;;;;;;;;5034249;28;20124;-81
2021/12/11 05:29:35;;;;;;;26.35;15.15;;;;;;;;;;5034519;28;20037;-81
2021/12/11 05:32:02;;;;;;;24.55;14.60;;;;;;;;;;5017909;28;20049;-81
2021/12/11 05:34:28;;;;;;;25.02;15.25;;;;;;;;;;4998541;28;20041;-81
2021/12/11 05:36:55;;;;;;;25.17;15.43;;;;;;;;;;4998458;28;20056;-81
2021/12/11 05:39:21;;;;;;;23.85;14.77;;;;;;;;;;5014049;28;20072;-81
2021/12/11 05:41:47;;;;;;;22.00;13.18;;;;;;;;;;5014088;28;20048;-81
2021/12/11 05:44:15;;;;;;;22.42;14.25;;;;;;;;;;5014191;28;20045;-81
2021/12/11 05:46:41;;;;;;;20.20;13.73;;;;;;;;;;5014535;28;20045;-82
2021/12/11 05:49:09;;;;;;;23.33;13.95;;;;;;;;;;4998054;28;20128;-82
2021/12/11 05:51:39;;;;;;;22.60;14.82;;;;;;;;;;4998254;28;20490;-81
2021/12/11 05:54:11;;;;;;;22.35;14.13;;;;;;;;;;4997705;28;20064;-81
2021/12/11 05:56:39;;;;;;;25.25;14.80;;;;;;;;;;4999262;28;20146;-82
2021/12/11 05:59:07;;;;;;;24.45;15.23;;;;;;;;;;5017802;28;20052;-81
2021/12/11 06:01:39;;;;;;;24.38;14.85;;;;;;;;;;5018089;28;20049;-81
2021/12/11 06:04:07;;;;;;;22.33;14.60;;;;;;;;;;5017663;28;20045;-81
2021/12/11 06:06:34;;;;;;;22.70;13.45;;;;;;;;;;5001470;28;20041;-80
2021/12/11 06:09:00;;;;;;;25.52;14.73;;;;;;;;;;5017126;28;20049;-81
2021/12/11 06:11:26;;;;;;;23.10;14.50;;;;;;;;;;5001474;28;20037;-81
2021/12/11 06:13:52;;;;;;;27.48;14.60;;;;;;;;;;5001284;28;20069;-81
2021/12/11 06:16:18;;;;;;;24.45;13.77;;;;;;;;;;5017413;28;20099;-82
2021/12/11 06:18:45;;;;;;;24.27;14.10;;;;;;;;;;5017716;28;20041;-82
2021/12/11 06:21:11;;;;;;;23.88;13.90;;;;;;;;;;5001882;28;20049;-82
2021/12/11 06:23:37;;;;;;;26.90;15.45;;;;;;;;;;5018054;28;20128;-81
2021/12/11 06:26:04;;;;;;;26.20;14.52;;;;;;;;;;5000547;28;20057;-81
2021/12/11 06:28:30;;;;;;;26.08;15.05;;;;;;;;;;5001008;28;20124;-81
2021/12/11 06:31:02;;;;;;;22.17;14.27;;;;;;;;;;5016848;28;20471;-80
2021/12/11 06:33:28;;;;;;;27.92;14.65;;;;;;;;;;5001037;28;20048;-82
2021/12/11 06:35:57;;;;;;;24.70;15.48;;;;;;;;;;5017476;28;20044;-82
2021/12/11 06:38:25;;;;;;;26.02;16.02;;;;;;;;;;5000696;28;20037;-80
2021/12/11 06:40:52;;;;;;;23.70;13.88;;;;;;;;;;5000488;28;20112;-81
2021/12/11 06:43:18;;;;;;;22.98;14.18;;;;;;;;;;5018005;28;21061;-81
2021/12/11 06:45:44;;;;;;;22.25;14.07;;;;;;;;;;5020439;28;20041;-82
2021/12/11 06:48:10;;;;;;;23.80;14.43;;;;;;;;;;5020650;28;20048;-83
2021/12/11 06:50:37;;;;;;;23.70;14.02;;;;;;;;;;5019932;28;20044;-82
2021/12/11 06:53:07;;;;;;;20.77;13.15;;;;;;;;;;5036367;28;20033;-80
2021/12/11 06:55:33;;;;;;;24.90;14.57;;;;;;;;;;5020224;28;20045;-80
2021/12/11 06:58:00;;;;;;;21.58;13.43;;;;;;;;;;5036400;28;20409;-81
2021/12/11 07:00:28;;;;;;;22.20;15.32;;;;;;;;;;5019554;28;20048;-81
2021/12/11 07:02:54;;;;;;;24.50;15.15;;;;;;;;;;5036449;28;20081;-81
2021/12/11 07:05:20;;;;;;;26.88;16.33;;;;;;;;;;5019959;28;20049;-81
2021/12/11 07:07:46;;;;;;;21.30;14.77;;;;;;;;;;5035723;28;20037;-82
2021/12/11 07:10:13;;;;;;;24.60;14.70;;;;;;;;;;5019506;28;20040;-83
2021/12/11 07:12:40;;;;;;;23.95;14.25;;;;;;;;;;5020831;28;20041;-84
2021/12/11 07:15:07;;;;;;;24.10;14.90;;;;;;;;;;5019642;28;20036;-84
2021/12/11 07:17:34;;;;;;;23.45;16.23;;;;;;;;;;5018931;28;20045;-84
2021/12/11 07:20:01;;;;;;;20.90;14.32;;;;;;;;;;5017299;28;20056;-85
2021/12/11 07:22:27;;;;;;;27.45;15.50;;;;;;;;;;5016765;28;20120;-81
2021/12/11 07:25:05;;;;;;;23.77;14.35;;;;;;;;;;5015836;28;20144;-81
2021/12/11 07:27:31;;;;;;;23.30;14.30;;;;;;;;;;5016211;28;20054;-81
2021/12/11 07:29:58;;;;;;;23.80;14.60;;;;;;;;;;5017010;28;20045;-80
2021/12/11 07:32:24;;;;;;;23.38;14.80;;;;;;;;;;5015699;28;20041;-81
2021/12/11 07:34:50;;;;;;;22.67;14.40;;;;;;;;;;5015776;28;20053;-81
2021/12/11 07:37:16;;;;;;;24.17;15.90;;;;;;;;;;5015416;28;20045;-80
2021/12/11 07:39:42;;;;;;;24.02;14.68;;;;;;;;;;5006388;28;20040;-77
2021/12/11 07:42:09;;;;;;;25.40;15.85;;;;;;;;;;5040400;28;20543;-77
2021/12/11 07:44:36;;;;;;;24.10;15.27;;;;;;;;;;5031097;28;20124;-73
2021/12/11 07:47:15;;;;;;;22.73;15.77;;;;;;;;;;5044224;28;20045;-78
2021/12/11 07:49:42;;;;;;;25.45;16.60;;;;;;;;;;4999318;28;20047;-76
2021/12/11 07:52:08;;;;;;;28.17;16.80;;;;;;;;;;5047678;28;20037;-73
2021/12/11 07:54:34;;;;;;;27.42;16.00;;;;;;;;;;5003969;28;20162;-73
2021/12/11 07:57:00;;;;;;;22.80;14.77;;;;;;;;;;5034591;28;20124;-70
2021/12/11 07:59:26;;;;;;;27.05;18.27;;;;;;;;;;5032862;28;20049;-74
2021/12/11 08:01:53;;;;;;;28.15;19.45;;;;;;;;;;5013778;28;20048;-81
2021/12/11 08:04:20;;;;;;;32.97;18.55;;;;;;;;;;5017344;28;20041;-83
2021/12/11 08:06:46;;;;;;;33.78;20.45;;;;;;;;;;5014062;28;20041;-71
2021/12/11 08:09:15;;;;;;;35.38;19.38;;;;;;;;;;5032277;28;20124;-79
2021/12/11 08:11:42;;;;;;;40.10;20.50;;;-0.80;99.90;;;;;;5034391;28;20052;-76
2021/12/11 08:14:09;;;;;;;32.95;18.95;;;-0.70;99.90;;;;;;5022872;28;20053;-78
2021/12/11 08:16:44;;;;;;;56.55;23.50;;;-0.70;99.90;;;;;;5015330;28;20067;-78
2021/12/11 08:19:11;;;;;;;43.83;21.02;;;-0.80;99.90;;;;;;4997558;28;20080;-76
2021/12/11 08:21:42;;;;;;;33.85;18.38;;;-0.70;99.90;;;;;;5012828;28;20037;-79
2021/12/11 08:24:08;;;;;;;31.52;18.48;;;-0.70;99.90;;;;;;5014813;28;20053;-74
2021/12/11 08:26:36;;;;;;;42.78;19.58;;;-0.70;99.90;;;;;;5014330;28;20053;-81
2021/12/11 08:29:04;;;;;;;32.20;17.83;;;-0.60;99.90;;;;;;4997217;28;20081;-74
2021/12/11 08:31:30;;;;;;;28.83;18.63;;;-0.60;99.90;;;;;;5013546;28;20597;-73
2021/12/11 08:33:56;;;;;;;30.67;19.58;;;-0.60;99.90;;;;;;5024544;28;20040;-78
2021/12/11 08:36:30;;;;;;;31.20;17.88;;;-0.60;99.90;;;;;;5012330;28;20044;-78
2021/12/11 08:38:59;;;;;;;53.88;23.85;;;-0.50;99.90;;;;;;5013869;28;20041;-81
2021/12/11 08:41:27;;;;;;;68.07;26.55;;;-0.50;99.90;;;;;;4997757;28;20041;-77
2021/12/11 08:43:59;;;;;;;65.05;26.45;;;-0.50;99.90;;;;;;5004694;28;20450;-76
2021/12/11 08:46:38;;;;;;;80.28;31.00;;;-0.50;99.90;;;;;;5008650;28;20056;-78
2021/12/11 08:49:11;;;;;;;58.13;25.63;;;-0.40;99.90;;;;;;5003435;28;20042;-76
2021/12/11 08:51:47;;;;;;;76.15;30.58;;;-0.40;99.90;;;;;;4996061;28;20034;-78
2021/12/11 08:54:13;;;;;;;46.13;22.83;;;-0.30;99.90;;;;;;4997469;28;20523;-79
2021/12/11 08:56:40;;;;;;;54.63;22.90;;;-0.30;99.90;;;;;;5014129;28;20049;-77
2021/12/11 08:59:10;;;;;;;47.80;24.17;;;-0.20;99.90;;;;;;5013817;28;20490;-73
2021/12/11 09:02:01;;;;;;;42.22;22.90;;;-0.20;99.90;;;;;;5011918;28;20048;-80
2021/12/11 09:04:32;;;;;;;37.47;22.00;;;-0.20;99.90;;;;;;4996940;28;20054;-78
2021/12/11 09:07:03;;;;;;;36.17;22.30;;;-0.10;99.90;;;;;;4998245;28;20049;-78
2021/12/11 09:09:44;;;;;;;43.03;23.88;;;-0.10;99.90;;;;;;4989224;28;20030;-77
2021/12/11 09:12:30;;;;;;;41.55;23.27;;;-0.10;99.90;;;;;;5013043;28;20048;-75
2021/12/11 09:14:59;;;;;;;;;;;-0.10;99.90;;;;;;4996862;28;20041;-82
2021/12/11 09:17:44;;;;;;;34.58;22.55;;;-0.10;99.90;;;;;;5014438;28;19917;-85
2021/12/11 09:20:26;;;;;;;43.00;23.33;;;-0.10;99.90;;;;;;5013737;28;20049;-87
2021/12/11 09:23:04;;;;;;;32.50;19.80;;;0.00;99.90;;;;;;4991004;28;20045;-89
2021/12/11 09:25:42;;;;;;;41.53;23.33;;;-0.10;99.90;;;;;;4995718;28;20077;-88
2021/12/11 09:28:19;;;;;;;33.97;20.40;;;1.00;99.90;;;;;;5000649;28;20056;-87
2021/12/11 09:30:57;;;;;;;31.65;20.73;;;0.00;99.90;;;;;;5012640;28;20120;-79
2021/12/11 09:33:27;;;;;;;27.60;18.00;;;0.10;99.90;;;;;;5017639;28;20048;-80
2021/12/11 09:36:20;;;;;;;29.88;17.88;;;0.10;99.90;;;;;;5001059;28;20040;-80
2021/12/11 09:39:00;;;;;;;32.70;21.05;;;0.10;99.90;;;;;;5007948;28;20111;-80
2021/12/11 09:41:26;;;;;;;27.60;16.60;;;0.20;99.90;;;;;;5037274;28;20547;-78
2021/12/11 09:44:05;;;;;;;27.80;18.55;;;0.20;99.90;;;;;;5033563;28;20110;-76
2021/12/11 09:46:35;;;;;;;31.92;21.17;;;0.30;99.90;;;;;;5036173;28;20084;-75
2021/12/11 09:49:04;;;;;;;30.23;19.98;;;0.30;99.90;;;;;;5027218;28;20038;-75
2021/12/11 09:51:34;;;;;;;29.83;19.52;;;0.40;99.90;;;;;;5023485;28;20086;-74
2021/12/11 09:54:05;;;;;;;30.40;20.30;;;0.40;99.90;;;;;;5014453;28;20041;-77
2021/12/11 09:56:39;;;;;;;26.90;17.60;;;0.50;99.90;;;;;;5018536;28;20033;-77
2021/12/11 09:59:09;;;;;;;29.88;18.33;;;0.50;99.90;;;;;;5028514;28;20084;-77
2021/12/11 10:01:39;;;;;;;28.50;19.30;;;0.50;99.90;;;;;;5035783;28;20068;-76
2021/12/11 10:04:13;;;;;;;26.92;18.73;;;1.70;99.90;;;;;;5029939;28;20033;-76
2021/12/11 10:06:52;;;;;;;28.40;18.95;;;0.70;99.90;;;;;;5033350;28;20068;-79
2021/12/11 10:09:25;;;;;;;24.60;17.75;;;0.70;99.90;;;;;;5006773;28;20041;-71
2021/12/11 10:12:03;;;;;;;26.33;17.80;;;0.80;99.90;;;;;;5052203;28;20037;-72
2021/12/11 10:14:34;;;;;;;27.88;19.00;;;0.80;99.90;;;;;;5017207;28;20056;-70
2021/12/11 10:17:04;;;;;;;27.92;16.67;;;0.80;99.90;;;;;;5021512;28;20045;-73
2021/12/11 10:19:30;;;;;;;24.00;16.33;;;0.80;99.90;;;;;;5034815;28;20044;-72
2021/12/11 10:22:16;;;;;;;26.13;16.95;;;0.80;99.90;;;;;;5017464;28;20045;-71
2021/12/11 10:24:42;;;;;;;27.42;18.30;;;0.90;99.90;;;;;;5024620;28;20061;-71
2021/12/11 10:27:10;;;;;;;29.55;19.15;;;1.90;99.90;;;;;;5015713;28;20170;-71
2021/12/11 10:29:37;;;;;;;28.58;17.70;;;1.00;99.90;;;;;;5034353;28;20789;-71
2021/12/11 10:32:08;;;;;;;30.67;19.42;;;1.10;99.90;;;;;;4979855;28;20039;-71
2021/12/11 10:34:35;;;;;;;28.73;17.80;;;1.10;99.90;;;;;;5000881;28;20121;-73
2021/12/11 10:37:11;;;;;;;30.05;19.20;;;1.10;99.90;;;;;;5042569;28;20053;-73
2021/12/11 10:39:41;;;;;;;32.92;20.20;;;1.30;99.90;;;;;;5000429;28;20048;-74
2021/12/11 10:42:07;;;;;;;30.80;18.42;;;1.30;99.90;;;;;;5015741;28;20048;-75
2021/12/11 10:44:37;;;;;;;28.52;17.73;;;1.50;99.90;;;;;;5014525;28;20041;-76
2021/12/11 10:47:11;;;;;;;27.85;18.17;;;1.60;99.90;;;;;;5012224;28;20289;-74
2021/12/11 10:49:38;;;;;;;28.52;19.60;;;1.70;99.90;;;;;;5001769;28;20077;-73
2021/12/11 10:52:15;;;;;;;33.03;19.73;;;1.90;99.90;;;;;;4987602;28;20120;-73
2021/12/11 10:54:41;;;;;;;30.48;19.05;;;;;;;;;;5000230;28;20048;-73
2021/12/11 10:57:07;;;;;;;30.02;19.23;;;1.40;99.90;;;;;;5010223;28;20130;-74
2021/12/11 10:59:38;;;;;;;30.95;19.77;;;1.70;99.90;;;;;;4999876;28;20160;-72
2021/12/11 11:02:36;;;;;;;28.73;19.58;;;1.70;99.90;;;;;;5028417;28;20045;-71
2021/12/11 11:05:13;;;;;;;31.38;18.98;;;1.80;99.90;;;;;;4957111;28;20045;-71
2021/12/11 11:07:40;;;;;;;31.33;19.83;;;1.80;99.90;;;;;;5012590;28;20128;-71
2021/12/11 11:10:11;;;;;;;27.70;18.95;;;1.70;99.90;;;;;;4996195;28;20041;-71
2021/12/11 11:12:37;;;;;;;26.13;18.85;;;1.70;99.90;;;;;;4998348;28;20045;-72
2021/12/11 11:15:04;;;;;;;31.83;20.27;;;1.80;99.90;;;;;;5004579;28;20046;-74
2021/12/11 11:17:33;;;;;;;33.42;21.10;;;2.00;99.90;;;;;;4998701;28;20065;-71
2021/12/11 11:20:03;;;;;;;27.15;18.65;;;2.20;99.90;;;;;;4999471;28;20414;-72
2021/12/11 11:22:32;;;;;;;28.60;18.50;;;2.20;99.90;;;;;;5002380;28;20378;-71
2021/12/11 11:25:07;;;;;;;32.45;19.92;;;2.40;99.90;;;;;;5006104;28;20490;-73
2021/12/11 11:27:33;;;;;;;28.88;18.20;;;2.50;99.90;;;;;;5032984;28;20040;-71
2021/12/11 11:29:59;;;;;;;30.20;17.33;;;2.50;99.90;;;;;;5035374;28;20049;-73
2021/12/11 11:32:31;;;;;;;30.30;19.05;;;2.60;99.90;;;;;;5035094;28;20513;-73
2021/12/11 11:35:11;;;;;;;28.35;18.10;;;2.70;99.90;;;;;;5027749;28;20037;-73
2021/12/11 11:37:38;;;;;;;28.30;16.98;;;2.80;99.90;;;;;;5026834;28;20505;-72
2021/12/11 11:40:09;;;;;;;26.42;16.85;;;2.80;99.90;;;;;;5025793;28;20041;-71
2021/12/11 11:42:36;;;;;;;27.80;16.67;;;3.00;99.90;;;;;;5032783;28;20042;-75
2021/12/11 11:45:05;;;;;;;25.42;17.08;;;3.00;99.90;;;;;;5025402;28;20545;-79
2021/12/11 11:47:31;;;;;;;25.45;16.20;;;3.10;99.90;;;;;;5032216;28;20065;-77
2021/12/11 11:49:59;;;;;;;26.42;16.05;;;3.20;99.90;;;;;;5019671;28;20162;-75
2021/12/11 11:52:27;;;;;;;26.90;16.58;;;3.20;99.90;;;;;;5034723;28;20047;-75
2021/12/11 11:54:57;;;;;;;28.98;18.30;;;3.20;99.90;;;;;;5034648;28;20041;-75
2021/12/11 11:57:31;;;;;;;27.73;16.58;;;3.30;99.90;;;;;;5035418;28;20044;-75
2021/12/11 11:59:59;;;;;;;25.13;16.37;;;3.30;99.90;;;;;;5024831;28;20077;-75
2021/12/11 12:02:30;;;;;;;30.05;16.10;;;3.40;99.90;;;;;;5013027;28;20040;-74
2021/12/11 12:04:59;;;;;;;26.10;16.83;;;3.40;99.90;;;;;;5017683;28;20068;-74
2021/12/11 12:07:29;;;;;;;21.35;14.48;;;3.40;99.90;;;;;;4999334;28;20487;-74
2021/12/11 12:10:05;;;;;;;23.67;15.75;;;3.50;99.90;;;;;;4999485;28;20027;-78
2021/12/11 12:12:30;;;;;;;25.38;15.25;;;3.50;99.90;;;;;;5015778;28;20159;-77
2021/12/11 12:14:58;;;;;;;25.95;16.67;;;3.50;99.90;;;;;;5019064;28;20043;-79
2021/12/11 12:17:27;;;;;;;26.38;17.85;;;3.50;99.90;;;;;;5024490;28;20045;-76
2021/12/11 12:19:54;;;;;;;23.67;16.20;;;3.50;99.90;;;;;;5014425;28;20520;-75
2021/12/11 12:22:21;;;;;;;25.05;15.27;;;3.50;99.90;;;;;;5015266;28;20045;-75
2021/12/11 12:24:49;;;;;;;29.08;17.85;;;3.50;99.90;;;;;;5010301;28;20057;-77
2021/12/11 12:27:18;;;;;;;31.00;18.30;;;3.50;99.90;;;;;;5003932;28;20553;-76
2021/12/11 12:29:46;;;;;;;28.55;16.67;;;3.60;99.90;;;;;;4991318;28;20045;-73
2021/12/11 12:32:23;;;;;;;30.95;16.80;;;3.60;99.90;;;;;;5012755;28;20116;-76
2021/12/11 12:34:52;;;;;;;31.85;18.98;;;3.70;99.90;;;;;;4998055;28;20033;-74
2021/12/11 12:37:18;;;;;;;28.75;18.00;;;3.80;99.90;;;;;;4996574;28;20037;-76
2021/12/11 12:39:48;;;;;;;28.13;17.67;;;3.90;99.90;;;;;;5012865;28;20120;-75
2021/12/11 12:42:30;;;;;;;26.08;18.20;;;3.90;99.90;;;;;;5013986;28;20492;-74
2021/12/11 12:45:23;;;;;;;30.13;16.50;;;4.00;99.90;;;;;;4994815;28;20050;-75
2021/12/11 12:47:56;;;;;;;29.63;18.13;;;4.10;99.90;;;;;;4987888;28;20116;-72
2021/12/11 12:50:28;;;;;;;31.95;18.20;;;4.10;99.90;;;;;;5011526;28;20049;-72
2021/12/11 12:52:53;;;;;;;28.25;17.58;;;4.20;99.90;;;;;;5000070;28;20501;-71
2021/12/11 12:56:02;;;;;;;30.30;17.40;;;4.30;99.90;;;;;;5004545;28;20135;-73
2021/12/11 12:58:37;;;;;;;27.92;16.50;;;4.40;99.90;;;;;;4954033;28;20124;-74
2021/12/11 13:01:13;;;;;;;27.55;16.95;;;6.70;99.90;;;;;;4995771;28;20125;-75
2021/12/11 13:03:41;;;;;;;25.67;16.52;;;4.50;99.90;;;;;;5010106;28;20040;-70
2021/12/11 13:06:18;;;;;;;29.75;17.50;;;4.50;99.90;;;;;;5001670;28;20360;-77
2021/12/11 13:08:57;;;;;;;27.10;18.42;;;6.00;99.90;;;;;;5018705;28;20041;-77
2021/12/11 13:11:34;;;;;;;28.88;17.92;;;4.50;99.90;;;;;;5002306;28;20044;-75
2021/12/11 13:14:00;;;;;;;27.88;18.00;;;4.60;99.90;;;;;;5000983;28;20073;-76
2021/12/11 13:16:37;;;;;;;27.45;16.00;;;4.60;99.90;;;;;;5005945;28;20084;-71
2021/12/11 13:19:08;;;;;;;27.30;15.88;;;4.70;99.90;;;;;;4989784;28;20041;-72
2021/12/11 13:21:41;;;;;;;27.33;16.52;;;4.70;99.90;;;;;;5018403;28;20091;-72
2021/12/11 13:24:11;;;;;;;29.33;16.98;;;4.70;99.90;;;;;;5016129;28;20406;-73
2021/12/11 13:26:41;;;;;;;31.30;17.17;;;4.10;99.90;;;;;;5032319;28;20482;-76
2021/12/11 13:29:10;;;;;;;30.77;19.83;;;4.80;99.90;;;;;;5032814;28;20047;-76
2021/12/11 13:31:46;;;;;;;31.23;18.40;;;6.20;99.90;;;;;;5019536;28;20167;-77
2021/12/11 13:34:12;;;;;;;26.83;16.83;;;4.80;99.90;;;;;;5031250;28;20049;-77